sensor_id;sensor_type;location;lat;lon;timestamp;P1;durP1;ratioP1;P2;durP2;ratioP2
2850;SDS011;1433;49.976;8.342;2023-04-21T00:00:49;0.90;;;0.80;;
2850;SDS011;1433;49.976;8.342;2023-04-21T00:03:16;1.07;;;0.90;;
2850;SDS011;1433;49.976;8.342;2023-04-21T00:05:45;0.90;;;0.67;;
2850;SDS011;1433;49.976;8.342;2023-04-21T00:08:11;0.90;;;0.70;;
2850;SDS011;1433;49.976;8.342;2023-04-21T00:10:37;0.90;;;0.70;;
2850;SDS011;1433;49.976;8.342;2023-04-21T00:13:03;2.70;;;2.50;;
2850;SDS011;1433;49.976;8.342;2023-04-21T00:15:29;0.90;;;0.60;;
2850;SDS011;1433;49.976;8.342;2023-04-21T00:17:55;0.90;;;0.70;;
2850;SDS011;1433;49.976;8.342;2023-04-21T00:20:23;0.90;;;0.80;;
2850;SDS011;1433;49.976;8.342;2023-04-21T00:22:53;1.00;;;0.80;;
2850;SDS011;1433;49.976;8.342;2023-04-21T00:25:21;0.90;;;0.67;;
2850;SDS011;1433;49.976;8.342;2023-04-21T00:27:47;0.90;;;0.70;;
2850;SDS011;1433;49.976;8.342;2023-04-21T00:30:14;0.90;;;0.70;;
2850;SDS011;1433;49.976;8.342;2023-04-21T00:32:40;0.90;;;0.60;;
2850;SDS011;1433;49.976;8.342;2023-04-21T00:35:06;0.90;;;0.70;;
2850;SDS011;1433;49.976;8.342;2023-04-21T00:37:33;0.90;;;0.60;;
2850;SDS011;1433;49.976;8.342;2023-04-21T00:40:00;0.90;;;0.70;;
2850;SDS011;1433;49.976;8.342;2023-04-21T00:42:33;0.90;;;0.60;;
2850;SDS011;1433;49.976;8.342;2023-04-21T00:45:00;0.90;;;0.70;;
2850;SDS011;1433;49.976;8.342;2023-04-21T00:47:26;0.90;;;0.60;;
2850;SDS011;1433;49.976;8.342;2023-04-21T00:49:52;0.90;;;0.70;;
2850;SDS011;1433;49.976;8.342;2023-04-21T00:52:18;0.90;;;0.60;;
2850;SDS011;1433;49.976;8.342;2023-04-21T00:54:49;0.90;;;0.60;;
2850;SDS011;1433;49.976;8.342;2023-04-21T00:57:14;0.90;;;0.70;;
2850;SDS011;1433;49.976;8.342;2023-04-21T00:59:41;0.90;;;0.60;;
2850;SDS011;1433;49.976;8.342;2023-04-21T01:02:08;0.90;;;0.70;;
2850;SDS011;1433;49.976;8.342;2023-04-21T01:04:34;0.90;;;0.70;;
2850;SDS011;1433;49.976;8.342;2023-04-21T01:07:03;0.90;;;0.60;;
2850;SDS011;1433;49.976;8.342;2023-04-21T01:09:29;1.20;;;0.90;;
2850;SDS011;1433;49.976;8.342;2023-04-21T01:12:03;1.00;;;0.90;;
2850;SDS011;1433;49.976;8.342;2023-04-21T01:14:33;0.90;;;0.60;;
2850;SDS011;1433;49.976;8.342;2023-04-21T01:17:00;1.17;;;1.00;;
2850;SDS011;1433;49.976;8.342;2023-04-21T01:19:29;0.90;;;0.70;;
2850;SDS011;1433;49.976;8.342;2023-04-21T01:21:59;1.00;;;0.90;;
2850;SDS011;1433;49.976;8.342;2023-04-21T01:24:39;0.90;;;0.70;;
2850;SDS011;1433;49.976;8.342;2023-04-21T01:27:07;0.90;;;0.70;;
2850;SDS011;1433;49.976;8.342;2023-04-21T01:29:35;0.90;;;0.67;;
2850;SDS011;1433;49.976;8.342;2023-04-21T01:32:03;0.90;;;0.63;;
2850;SDS011;1433;49.976;8.342;2023-04-21T01:34:35;0.90;;;0.60;;
2850;SDS011;1433;49.976;8.342;2023-04-21T01:37:02;0.90;;;0.67;;
2850;SDS011;1433;49.976;8.342;2023-04-21T01:39:28;0.90;;;0.70;;
2850;SDS011;1433;49.976;8.342;2023-04-21T01:41:55;0.90;;;0.60;;
2850;SDS011;1433;49.976;8.342;2023-04-21T01:44:23;0.90;;;0.70;;
2850;SDS011;1433;49.976;8.342;2023-04-21T01:46:51;0.90;;;0.70;;
2850;SDS011;1433;49.976;8.342;2023-04-21T01:49:18;0.90;;;0.70;;
2850;SDS011;1433;49.976;8.342;2023-04-21T01:51:44;0.90;;;0.70;;
2850;SDS011;1433;49.976;8.342;2023-04-21T01:54:10;0.90;;;0.60;;
2850;SDS011;1433;49.976;8.342;2023-04-21T01:56:38;0.90;;;0.70;;
2850;SDS011;1433;49.976;8.342;2023-04-21T01:59:05;0.90;;;0.70;;
2850;SDS011;1433;49.976;8.342;2023-04-21T02:01:31;0.90;;;0.70;;
2850;SDS011;1433;49.976;8.342;2023-04-21T02:03:57;0.90;;;0.60;;
2850;SDS011;1433;49.976;8.342;2023-04-21T02:06:24;0.90;;;0.70;;
2850;SDS011;1433;49.976;8.342;2023-04-21T02:08:50;0.90;;;0.60;;
2850;SDS011;1433;49.976;8.342;2023-04-21T02:11:17;0.90;;;0.67;;
2850;SDS011;1433;49.976;8.342;2023-04-21T02:13:43;0.90;;;0.80;;
2850;SDS011;1433;49.976;8.342;2023-04-21T02:16:09;0.90;;;0.70;;
2850;SDS011;1433;49.976;8.342;2023-04-21T02:18:35;0.90;;;0.70;;
2850;SDS011;1433;49.976;8.342;2023-04-21T02:21:04;0.90;;;0.70;;
2850;SDS011;1433;49.976;8.342;2023-04-21T02:23:31;1.33;;;1.00;;
2850;SDS011;1433;49.976;8.342;2023-04-21T02:25:57;0.90;;;0.67;;
2850;SDS011;1433;49.976;8.342;2023-04-21T02:28:23;0.90;;;0.60;;
2850;SDS011;1433;49.976;8.342;2023-04-21T02:30:49;0.90;;;0.67;;
2850;SDS011;1433;49.976;8.342;2023-04-21T02:33:17;0.90;;;0.60;;
2850;SDS011;1433;49.976;8.342;2023-04-21T02:35:43;0.90;;;0.70;;
2850;SDS011;1433;49.976;8.342;2023-04-21T02:38:09;0.90;;;0.60;;
2850;SDS011;1433;49.976;8.342;2023-04-21T02:40:35;0.90;;;0.60;;
2850;SDS011;1433;49.976;8.342;2023-04-21T02:43:02;0.90;;;0.70;;
2850;SDS011;1433;49.976;8.342;2023-04-21T02:45:28;0.90;;;0.60;;
2850;SDS011;1433;49.976;8.342;2023-04-21T02:47:54;0.90;;;0.60;;
2850;SDS011;1433;49.976;8.342;2023-04-21T02:50:20;0.90;;;0.70;;
2850;SDS011;1433;49.976;8.342;2023-04-21T02:52:46;0.90;;;0.70;;
2850;SDS011;1433;49.976;8.342;2023-04-21T02:55:13;0.90;;;0.70;;
2850;SDS011;1433;49.976;8.342;2023-04-21T02:57:40;0.90;;;0.70;;
2850;SDS011;1433;49.976;8.342;2023-04-21T03:00:07;4.10;;;1.47;;
2850;SDS011;1433;49.976;8.342;2023-04-21T03:02:35;0.90;;;0.60;;
2850;SDS011;1433;49.976;8.342;2023-04-21T03:05:01;1.10;;;0.70;;
2850;SDS011;1433;49.976;8.342;2023-04-21T03:07:29;0.90;;;0.70;;
2850;SDS011;1433;49.976;8.342;2023-04-21T03:09:55;1.03;;;0.93;;
2850;SDS011;1433;49.976;8.342;2023-04-21T03:12:21;0.90;;;0.70;;
2850;SDS011;1433;49.976;8.342;2023-04-21T03:14:47;0.90;;;0.63;;
2850;SDS011;1433;49.976;8.342;2023-04-21T03:17:14;0.90;;;0.70;;
2850;SDS011;1433;49.976;8.342;2023-04-21T03:19:40;0.90;;;0.60;;
2850;SDS011;1433;49.976;8.342;2023-04-21T03:22:06;0.90;;;0.80;;
2850;SDS011;1433;49.976;8.342;2023-04-21T03:24:32;0.90;;;0.70;;
2850;SDS011;1433;49.976;8.342;2023-04-21T03:26:59;0.90;;;0.63;;
2850;SDS011;1433;49.976;8.342;2023-04-21T03:29:26;0.90;;;0.80;;
2850;SDS011;1433;49.976;8.342;2023-04-21T03:31:53;0.90;;;0.70;;
2850;SDS011;1433;49.976;8.342;2023-04-21T03:34:20;0.90;;;0.70;;
2850;SDS011;1433;49.976;8.342;2023-04-21T03:36:46;0.90;;;0.70;;
2850;SDS011;1433;49.976;8.342;2023-04-21T03:39:13;0.90;;;0.70;;
2850;SDS011;1433;49.976;8.342;2023-04-21T03:41:39;0.90;;;0.63;;
2850;SDS011;1433;49.976;8.342;2023-04-21T03:44:05;1.60;;;1.47;;
2850;SDS011;1433;49.976;8.342;2023-04-21T03:46:31;1.27;;;0.80;;
2850;SDS011;1433;49.976;8.342;2023-04-21T03:48:59;0.90;;;0.70;;
2850;SDS011;1433;49.976;8.342;2023-04-21T03:51:25;0.90;;;0.80;;
2850;SDS011;1433;49.976;8.342;2023-04-21T03:53:52;0.90;;;0.80;;
2850;SDS011;1433;49.976;8.342;2023-04-21T03:56:18;0.90;;;0.70;;
2850;SDS011;1433;49.976;8.342;2023-04-21T03:58:44;0.90;;;0.70;;
2850;SDS011;1433;49.976;8.342;2023-04-21T04:01:10;0.90;;;0.60;;
2850;SDS011;1433;49.976;8.342;2023-04-21T04:03:36;0.90;;;0.70;;
2850;SDS011;1433;49.976;8.342;2023-04-21T04:06:03;0.90;;;0.70;;
2850;SDS011;1433;49.976;8.342;2023-04-21T04:08:30;0.90;;;0.70;;
2850;SDS011;1433;49.976;8.342;2023-04-21T04:10:56;0.90;;;0.70;;
2850;SDS011;1433;49.976;8.342;2023-04-21T04:13:22;0.90;;;0.70;;
2850;SDS011;1433;49.976;8.342;2023-04-21T04:15:51;0.90;;;0.70;;
2850;SDS011;1433;49.976;8.342;2023-04-21T04:18:18;0.90;;;0.63;;
2850;SDS011;1433;49.976;8.342;2023-04-21T04:20:44;0.90;;;0.60;;
2850;SDS011;1433;49.976;8.342;2023-04-21T04:23:10;0.90;;;0.70;;
2850;SDS011;1433;49.976;8.342;2023-04-21T04:25:36;0.90;;;0.70;;
2850;SDS011;1433;49.976;8.342;2023-04-21T04:28:04;0.90;;;0.70;;
2850;SDS011;1433;49.976;8.342;2023-04-21T04:30:32;0.90;;;0.70;;
2850;SDS011;1433;49.976;8.342;2023-04-21T04:32:58;1.60;;;1.50;;
2850;SDS011;1433;49.976;8.342;2023-04-21T04:35:25;0.90;;;0.60;;
2850;SDS011;1433;49.976;8.342;2023-04-21T04:37:51;1.00;;;0.80;;
2850;SDS011;1433;49.976;8.342;2023-04-21T04:40:19;0.90;;;0.70;;
2850;SDS011;1433;49.976;8.342;2023-04-21T04:42:47;0.90;;;0.60;;
2850;SDS011;1433;49.976;8.342;2023-04-21T04:45:13;0.90;;;0.70;;
2850;SDS011;1433;49.976;8.342;2023-04-21T04:47:41;0.90;;;0.70;;
2850;SDS011;1433;49.976;8.342;2023-04-21T04:50:08;2.50;;;0.83;;
2850;SDS011;1433;49.976;8.342;2023-04-21T04:52:34;0.90;;;0.70;;
2850;SDS011;1433;49.976;8.342;2023-04-21T04:55:00;0.90;;;0.70;;
2850;SDS011;1433;49.976;8.342;2023-04-21T04:57:26;0.90;;;0.70;;
2850;SDS011;1433;49.976;8.342;2023-04-21T04:59:55;0.90;;;0.60;;
2850;SDS011;1433;49.976;8.342;2023-04-21T05:02:23;0.90;;;0.70;;
2850;SDS011;1433;49.976;8.342;2023-04-21T05:04:53;0.90;;;0.60;;
2850;SDS011;1433;49.976;8.342;2023-04-21T05:07:19;0.90;;;0.70;;
2850;SDS011;1433;49.976;8.342;2023-04-21T05:09:45;0.90;;;0.80;;
2850;SDS011;1433;49.976;8.342;2023-04-21T05:12:11;0.90;;;0.60;;
2850;SDS011;1433;49.976;8.342;2023-04-21T05:14:37;0.90;;;0.70;;
2850;SDS011;1433;49.976;8.342;2023-04-21T05:17:04;1.30;;;0.87;;
2850;SDS011;1433;49.976;8.342;2023-04-21T05:19:30;0.90;;;0.70;;
2850;SDS011;1433;49.976;8.342;2023-04-21T05:21:59;0.90;;;0.80;;
2850;SDS011;1433;49.976;8.342;2023-04-21T05:24:28;0.90;;;0.70;;
2850;SDS011;1433;49.976;8.342;2023-04-21T05:26:54;0.90;;;0.70;;
2850;SDS011;1433;49.976;8.342;2023-04-21T05:29:20;0.90;;;0.80;;
2850;SDS011;1433;49.976;8.342;2023-04-21T05:31:46;0.90;;;0.60;;
2850;SDS011;1433;49.976;8.342;2023-04-21T05:34:12;1.93;;;1.67;;
2850;SDS011;1433;49.976;8.342;2023-04-21T05:36:43;0.90;;;0.70;;
2850;SDS011;1433;49.976;8.342;2023-04-21T05:39:07;0.90;;;0.80;;
2850;SDS011;1433;49.976;8.342;2023-04-21T05:41:34;0.90;;;0.73;;
2850;SDS011;1433;49.976;8.342;2023-04-21T05:44:00;1.13;;;0.90;;
2850;SDS011;1433;49.976;8.342;2023-04-21T05:46:26;0.90;;;0.80;;
2850;SDS011;1433;49.976;8.342;2023-04-21T05:48:53;0.90;;;0.70;;
2850;SDS011;1433;49.976;8.342;2023-04-21T05:51:19;0.90;;;0.70;;
2850;SDS011;1433;49.976;8.342;2023-04-21T05:53:45;0.90;;;0.70;;
2850;SDS011;1433;49.976;8.342;2023-04-21T05:56:12;0.90;;;0.70;;
2850;SDS011;1433;49.976;8.342;2023-04-21T05:58:39;0.90;;;0.70;;
2850;SDS011;1433;49.976;8.342;2023-04-21T06:01:07;0.90;;;0.60;;
2850;SDS011;1433;49.976;8.342;2023-04-21T06:03:33;0.90;;;0.70;;
2850;SDS011;1433;49.976;8.342;2023-04-21T06:05:59;0.90;;;0.70;;
2850;SDS011;1433;49.976;8.342;2023-04-21T06:08:28;0.90;;;0.60;;
2850;SDS011;1433;49.976;8.342;2023-04-21T06:10:54;0.90;;;0.70;;
2850;SDS011;1433;49.976;8.342;2023-04-21T06:13:21;0.90;;;0.70;;
2850;SDS011;1433;49.976;8.342;2023-04-21T06:15:47;0.90;;;0.70;;
2850;SDS011;1433;49.976;8.342;2023-04-21T06:18:13;0.90;;;0.70;;
2850;SDS011;1433;49.976;8.342;2023-04-21T06:20:39;1.07;;;0.90;;
2850;SDS011;1433;49.976;8.342;2023-04-21T06:23:05;1.10;;;1.00;;
2850;SDS011;1433;49.976;8.342;2023-04-21T06:25:31;0.90;;;0.70;;
2850;SDS011;1433;49.976;8.342;2023-04-21T06:27:58;2.33;;;2.23;;
2850;SDS011;1433;49.976;8.342;2023-04-21T06:30:24;0.90;;;0.70;;
2850;SDS011;1433;49.976;8.342;2023-04-21T06:32:51;0.90;;;0.70;;
2850;SDS011;1433;49.976;8.342;2023-04-21T06:35:17;0.90;;;0.70;;
2850;SDS011;1433;49.976;8.342;2023-04-21T06:37:45;0.90;;;0.67;;
2850;SDS011;1433;49.976;8.342;2023-04-21T06:40:11;0.90;;;0.60;;
2850;SDS011;1433;49.976;8.342;2023-04-21T06:42:43;0.90;;;0.70;;
2850;SDS011;1433;49.976;8.342;2023-04-21T06:45:09;0.93;;;0.80;;
2850;SDS011;1433;49.976;8.342;2023-04-21T06:47:35;0.90;;;0.70;;
2850;SDS011;1433;49.976;8.342;2023-04-21T06:50:02;0.90;;;0.70;;
2850;SDS011;1433;49.976;8.342;2023-04-21T06:52:29;1.20;;;1.10;;
2850;SDS011;1433;49.976;8.342;2023-04-21T06:54:55;2.33;;;1.43;;
2850;SDS011;1433;49.976;8.342;2023-04-21T06:57:21;1.10;;;0.80;;
2850;SDS011;1433;49.976;8.342;2023-04-21T06:59:47;0.90;;;0.70;;
2850;SDS011;1433;49.976;8.342;2023-04-21T07:02:13;0.90;;;0.70;;
2850;SDS011;1433;49.976;8.342;2023-04-21T07:04:39;0.90;;;0.70;;
2850;SDS011;1433;49.976;8.342;2023-04-21T07:07:06;1.10;;;1.00;;
2850;SDS011;1433;49.976;8.342;2023-04-21T07:09:32;0.90;;;0.70;;
2850;SDS011;1433;49.976;8.342;2023-04-21T07:11:59;1.23;;;0.87;;
2850;SDS011;1433;49.976;8.342;2023-04-21T07:14:25;0.93;;;0.73;;
2850;SDS011;1433;49.976;8.342;2023-04-21T07:16:51;0.90;;;0.80;;
2850;SDS011;1433;49.976;8.342;2023-04-21T07:19:19;1.43;;;1.33;;
2850;SDS011;1433;49.976;8.342;2023-04-21T07:21:45;1.10;;;0.80;;
2850;SDS011;1433;49.976;8.342;2023-04-21T07:24:12;1.10;;;1.00;;
2850;SDS011;1433;49.976;8.342;2023-04-21T07:26:38;2.50;;;1.27;;
2850;SDS011;1433;49.976;8.342;2023-04-21T07:29:04;0.90;;;0.70;;
2850;SDS011;1433;49.976;8.342;2023-04-21T07:31:30;4.50;;;1.23;;
2850;SDS011;1433;49.976;8.342;2023-04-21T07:33:56;1.00;;;0.80;;
2850;SDS011;1433;49.976;8.342;2023-04-21T07:36:22;2.90;;;1.80;;
2850;SDS011;1433;49.976;8.342;2023-04-21T07:38:49;2.40;;;1.47;;
2850;SDS011;1433;49.976;8.342;2023-04-21T07:41:15;2.80;;;1.83;;
2850;SDS011;1433;49.976;8.342;2023-04-21T07:43:41;0.90;;;0.67;;
2850;SDS011;1433;49.976;8.342;2023-04-21T07:46:07;2.80;;;1.47;;
2850;SDS011;1433;49.976;8.342;2023-04-21T07:48:33;0.90;;;0.77;;
2850;SDS011;1433;49.976;8.342;2023-04-21T07:50:59;0.90;;;0.73;;
2850;SDS011;1433;49.976;8.342;2023-04-21T07:53:27;2.00;;;1.40;;
2850;SDS011;1433;49.976;8.342;2023-04-21T07:55:54;0.90;;;0.60;;
2850;SDS011;1433;49.976;8.342;2023-04-21T07:58:20;1.10;;;1.00;;
2850;SDS011;1433;49.976;8.342;2023-04-21T08:00:47;1.00;;;0.70;;
2850;SDS011;1433;49.976;8.342;2023-04-21T08:03:15;0.90;;;0.60;;
2850;SDS011;1433;49.976;8.342;2023-04-21T08:05:41;0.90;;;0.70;;
2850;SDS011;1433;49.976;8.342;2023-04-21T08:08:07;0.90;;;0.80;;
2850;SDS011;1433;49.976;8.342;2023-04-21T08:10:34;1.00;;;0.80;;
2850;SDS011;1433;49.976;8.342;2023-04-21T08:13:00;1.20;;;1.00;;
2850;SDS011;1433;49.976;8.342;2023-04-21T08:15:28;2.50;;;0.90;;
2850;SDS011;1433;49.976;8.342;2023-04-21T08:17:54;0.90;;;0.70;;
2850;SDS011;1433;49.976;8.342;2023-04-21T08:20:20;1.30;;;1.20;;
2850;SDS011;1433;49.976;8.342;2023-04-21T08:22:46;2.40;;;1.20;;
2850;SDS011;1433;49.976;8.342;2023-04-21T08:25:12;0.90;;;0.70;;
2850;SDS011;1433;49.976;8.342;2023-04-21T08:27:41;0.90;;;0.70;;
2850;SDS011;1433;49.976;8.342;2023-04-21T08:30:08;0.90;;;0.80;;
2850;SDS011;1433;49.976;8.342;2023-04-21T08:32:35;1.20;;;1.10;;
2850;SDS011;1433;49.976;8.342;2023-04-21T08:35:01;1.73;;;1.33;;
2850;SDS011;1433;49.976;8.342;2023-04-21T08:37:27;0.90;;;0.70;;
2850;SDS011;1433;49.976;8.342;2023-04-21T08:39:54;1.00;;;0.90;;
2850;SDS011;1433;49.976;8.342;2023-04-21T08:42:20;0.93;;;0.80;;
2850;SDS011;1433;49.976;8.342;2023-04-21T08:44:46;0.90;;;0.80;;
2850;SDS011;1433;49.976;8.342;2023-04-21T08:47:13;4.30;;;0.83;;
2850;SDS011;1433;49.976;8.342;2023-04-21T08:49:40;0.97;;;0.87;;
2850;SDS011;1433;49.976;8.342;2023-04-21T08:52:10;1.00;;;0.70;;
2850;SDS011;1433;49.976;8.342;2023-04-21T08:54:38;1.10;;;0.70;;
2850;SDS011;1433;49.976;8.342;2023-04-21T08:57:05;0.90;;;0.60;;
2850;SDS011;1433;49.976;8.342;2023-04-21T08:59:32;2.43;;;1.90;;
2850;SDS011;1433;49.976;8.342;2023-04-21T09:02:12;29.53;;;20.07;;
2850;SDS011;1433;49.976;8.342;2023-04-21T09:04:43;29.37;;;20.73;;
2850;SDS011;1433;49.976;8.342;2023-04-21T09:07:10;27.17;;;18.90;;
2850;SDS011;1433;49.976;8.342;2023-04-21T09:09:50;25.20;;;19.70;;
2850;SDS011;1433;49.976;8.342;2023-04-21T09:12:17;30.90;;;20.30;;
2850;SDS011;1433;49.976;8.342;2023-04-21T09:14:44;27.37;;;20.30;;
2850;SDS011;1433;49.976;8.342;2023-04-21T09:17:10;27.10;;;19.00;;
2850;SDS011;1433;49.976;8.342;2023-04-21T09:19:37;27.50;;;18.43;;
2850;SDS011;1433;49.976;8.342;2023-04-21T09:22:03;27.00;;;17.30;;
2850;SDS011;1433;49.976;8.342;2023-04-21T09:24:29;32.63;;;20.83;;
2850;SDS011;1433;49.976;8.342;2023-04-21T09:26:55;23.30;;;19.43;;
2850;SDS011;1433;49.976;8.342;2023-04-21T09:29:22;23.87;;;16.73;;
2850;SDS011;1433;49.976;8.342;2023-04-21T09:31:49;20.73;;;16.30;;
2850;SDS011;1433;49.976;8.342;2023-04-21T09:34:21;26.10;;;16.77;;
2850;SDS011;1433;49.976;8.342;2023-04-21T09:36:59;22.60;;;16.70;;
2850;SDS011;1433;49.976;8.342;2023-04-21T09:39:30;24.67;;;16.80;;
2850;SDS011;1433;49.976;8.342;2023-04-21T09:41:57;19.03;;;14.60;;
2850;SDS011;1433;49.976;8.342;2023-04-21T09:44:24;20.00;;;15.40;;
2850;SDS011;1433;49.976;8.342;2023-04-21T09:46:52;19.97;;;14.70;;
2850;SDS011;1433;49.976;8.342;2023-04-21T09:49:21;15.93;;;13.10;;
2850;SDS011;1433;49.976;8.342;2023-04-21T09:51:49;17.53;;;12.60;;
2850;SDS011;1433;49.976;8.342;2023-04-21T09:54:15;18.00;;;12.00;;
2850;SDS011;1433;49.976;8.342;2023-04-21T09:56:42;16.70;;;12.83;;
2850;SDS011;1433;49.976;8.342;2023-04-21T09:59:12;15.50;;;10.93;;
2850;SDS011;1433;49.976;8.342;2023-04-21T10:01:42;15.63;;;11.00;;
2850;SDS011;1433;49.976;8.342;2023-04-21T10:04:11;12.77;;;11.43;;
2850;SDS011;1433;49.976;8.342;2023-04-21T10:06:38;13.70;;;10.03;;
2850;SDS011;1433;49.976;8.342;2023-04-21T10:09:05;17.50;;;11.17;;
2850;SDS011;1433;49.976;8.342;2023-04-21T10:11:34;14.00;;;11.53;;
2850;SDS011;1433;49.976;8.342;2023-04-21T10:14:02;15.00;;;11.20;;
2850;SDS011;1433;49.976;8.342;2023-04-21T10:16:29;15.23;;;11.40;;
2850;SDS011;1433;49.976;8.342;2023-04-21T10:18:55;11.33;;;9.17;;
2850;SDS011;1433;49.976;8.342;2023-04-21T10:21:21;12.40;;;9.73;;
2850;SDS011;1433;49.976;8.342;2023-04-21T10:23:50;10.00;;;8.77;;
2850;SDS011;1433;49.976;8.342;2023-04-21T10:26:23;13.00;;;11.50;;
2850;SDS011;1433;49.976;8.342;2023-04-21T10:29:00;13.40;;;10.50;;
2850;SDS011;1433;49.976;8.342;2023-04-21T10:31:35;10.47;;;8.10;;
2850;SDS011;1433;49.976;8.342;2023-04-21T10:39:28;11.93;;;9.40;;
2850;SDS011;1433;49.976;8.342;2023-04-21T10:44:51;11.40;;;9.83;;
2850;SDS011;1433;49.976;8.342;2023-04-21T10:49:58;12.57;;;9.30;;
2850;SDS011;1433;49.976;8.342;2023-04-21T10:52:33;16.73;;;11.20;;
2850;SDS011;1433;49.976;8.342;2023-04-21T10:57:30;15.47;;;11.33;;
2850;SDS011;1433;49.976;8.342;2023-04-21T10:59:58;12.97;;;10.77;;
2850;SDS011;1433;49.976;8.342;2023-04-21T11:02:25;14.20;;;10.63;;
2850;SDS011;1433;49.976;8.342;2023-04-21T11:04:52;12.20;;;9.60;;
2850;SDS011;1433;49.976;8.342;2023-04-21T11:07:19;13.80;;;11.00;;
2850;SDS011;1433;49.976;8.342;2023-04-21T11:09:49;15.50;;;11.13;;
2850;SDS011;1433;49.976;8.342;2023-04-21T11:12:25;10.90;;;8.77;;
2850;SDS011;1433;49.976;8.342;2023-04-21T11:14:53;10.97;;;9.77;;
2850;SDS011;1433;49.976;8.342;2023-04-21T11:17:20;14.50;;;11.27;;
2850;SDS011;1433;49.976;8.342;2023-04-21T11:19:53;12.13;;;8.23;;
2850;SDS011;1433;49.976;8.342;2023-04-21T11:22:18;13.23;;;10.10;;
2850;SDS011;1433;49.976;8.342;2023-04-21T11:24:48;12.57;;;9.60;;
2850;SDS011;1433;49.976;8.342;2023-04-21T11:27:18;13.50;;;10.17;;
2850;SDS011;1433;49.976;8.342;2023-04-21T11:29:46;12.00;;;9.80;;
2850;SDS011;1433;49.976;8.342;2023-04-21T11:32:14;16.20;;;10.47;;
2850;SDS011;1433;49.976;8.342;2023-04-21T11:34:41;12.33;;;10.43;;
2850;SDS011;1433;49.976;8.342;2023-04-21T11:37:13;10.33;;;9.23;;
2850;SDS011;1433;49.976;8.342;2023-04-21T11:39:41;10.20;;;7.87;;
2850;SDS011;1433;49.976;8.342;2023-04-21T11:42:08;11.60;;;9.40;;
2850;SDS011;1433;49.976;8.342;2023-04-21T11:44:36;11.23;;;9.87;;
2850;SDS011;1433;49.976;8.342;2023-04-21T11:47:11;10.63;;;9.13;;
2850;SDS011;1433;49.976;8.342;2023-04-21T11:49:42;14.53;;;8.30;;
2850;SDS011;1433;49.976;8.342;2023-04-21T11:52:11;9.50;;;8.40;;
2850;SDS011;1433;49.976;8.342;2023-04-21T11:54:39;11.63;;;8.30;;
2850;SDS011;1433;49.976;8.342;2023-04-21T11:57:05;7.97;;;6.67;;
2850;SDS011;1433;49.976;8.342;2023-04-21T11:59:32;9.93;;;8.93;;
2850;SDS011;1433;49.976;8.342;2023-04-21T12:01:58;8.80;;;7.30;;
2850;SDS011;1433;49.976;8.342;2023-04-21T12:04:24;9.83;;;8.83;;
2850;SDS011;1433;49.976;8.342;2023-04-21T12:07:08;12.30;;;9.60;;
2850;SDS011;1433;49.976;8.342;2023-04-21T12:09:26;9.30;;;8.07;;
2850;SDS011;1433;49.976;8.342;2023-04-21T12:11:53;10.10;;;7.07;;
2850;SDS011;1433;49.976;8.342;2023-04-21T12:14:22;11.10;;;8.50;;
2850;SDS011;1433;49.976;8.342;2023-04-21T12:16:52;14.43;;;9.30;;
2850;SDS011;1433;49.976;8.342;2023-04-21T12:19:34;11.00;;;8.00;;
2850;SDS011;1433;49.976;8.342;2023-04-21T12:21:54;10.13;;;9.10;;
2850;SDS011;1433;49.976;8.342;2023-04-21T12:24:23;9.80;;;7.97;;
2850;SDS011;1433;49.976;8.342;2023-04-21T12:26:50;11.23;;;9.40;;
2850;SDS011;1433;49.976;8.342;2023-04-21T12:29:16;9.23;;;7.40;;
2850;SDS011;1433;49.976;8.342;2023-04-21T12:31:42;8.30;;;7.43;;
2850;SDS011;1433;49.976;8.342;2023-04-21T12:34:08;8.10;;;7.00;;
2850;SDS011;1433;49.976;8.342;2023-04-21T12:36:34;9.10;;;8.20;;
2850;SDS011;1433;49.976;8.342;2023-04-21T12:39:01;8.90;;;8.00;;
2850;SDS011;1433;49.976;8.342;2023-04-21T12:41:27;8.40;;;7.27;;
2850;SDS011;1433;49.976;8.342;2023-04-21T12:43:53;10.03;;;7.97;;
2850;SDS011;1433;49.976;8.342;2023-04-21T12:46:19;10.63;;;7.60;;
2850;SDS011;1433;49.976;8.342;2023-04-21T12:48:45;9.93;;;8.53;;
2850;SDS011;1433;49.976;8.342;2023-04-21T12:51:13;7.87;;;7.10;;
2850;SDS011;1433;49.976;8.342;2023-04-21T12:53:39;8.70;;;7.03;;
2850;SDS011;1433;49.976;8.342;2023-04-21T12:56:05;9.07;;;8.13;;
2850;SDS011;1433;49.976;8.342;2023-04-21T12:58:31;8.70;;;7.80;;
2850;SDS011;1433;49.976;8.342;2023-04-21T13:00:58;8.83;;;7.70;;
2850;SDS011;1433;49.976;8.342;2023-04-21T13:03:24;10.50;;;8.30;;
2850;SDS011;1433;49.976;8.342;2023-04-21T13:05:51;8.90;;;7.27;;
2850;SDS011;1433;49.976;8.342;2023-04-21T13:08:17;8.00;;;7.07;;
2850;SDS011;1433;49.976;8.342;2023-04-21T13:10:43;8.47;;;6.87;;
2850;SDS011;1433;49.976;8.342;2023-04-21T13:13:10;10.00;;;7.73;;
2850;SDS011;1433;49.976;8.342;2023-04-21T13:15:36;8.07;;;6.70;;
2850;SDS011;1433;49.976;8.342;2023-04-21T13:18:03;9.60;;;8.27;;
2850;SDS011;1433;49.976;8.342;2023-04-21T13:20:29;9.33;;;8.43;;
2850;SDS011;1433;49.976;8.342;2023-04-21T13:22:55;9.57;;;8.63;;
2850;SDS011;1433;49.976;8.342;2023-04-21T13:25:21;9.03;;;7.77;;
2850;SDS011;1433;49.976;8.342;2023-04-21T13:27:48;9.50;;;8.30;;
2850;SDS011;1433;49.976;8.342;2023-04-21T13:30:14;10.30;;;6.97;;
2850;SDS011;1433;49.976;8.342;2023-04-21T13:32:41;9.50;;;7.33;;
2850;SDS011;1433;49.976;8.342;2023-04-21T13:35:08;7.10;;;6.40;;
2850;SDS011;1433;49.976;8.342;2023-04-21T13:37:36;10.40;;;8.10;;
2850;SDS011;1433;49.976;8.342;2023-04-21T13:40:03;8.73;;;7.20;;
2850;SDS011;1433;49.976;8.342;2023-04-21T13:42:30;8.10;;;6.80;;
2850;SDS011;1433;49.976;8.342;2023-04-21T13:44:58;7.40;;;6.77;;
2850;SDS011;1433;49.976;8.342;2023-04-21T13:47:27;7.53;;;6.83;;
2850;SDS011;1433;49.976;8.342;2023-04-21T13:49:55;7.97;;;7.27;;
2850;SDS011;1433;49.976;8.342;2023-04-21T13:52:21;7.57;;;6.87;;
2850;SDS011;1433;49.976;8.342;2023-04-21T13:54:47;9.60;;;6.73;;
2850;SDS011;1433;49.976;8.342;2023-04-21T13:57:14;8.27;;;7.47;;
2850;SDS011;1433;49.976;8.342;2023-04-21T13:59:40;7.43;;;6.70;;
2850;SDS011;1433;49.976;8.342;2023-04-21T14:02:06;8.37;;;7.47;;
2850;SDS011;1433;49.976;8.342;2023-04-21T14:04:33;6.87;;;6.27;;
2850;SDS011;1433;49.976;8.342;2023-04-21T14:06:59;8.80;;;6.70;;
2850;SDS011;1433;49.976;8.342;2023-04-21T14:09:25;6.97;;;6.27;;
2850;SDS011;1433;49.976;8.342;2023-04-21T14:11:51;6.87;;;6.17;;
2850;SDS011;1433;49.976;8.342;2023-04-21T14:14:17;7.23;;;6.53;;
2850;SDS011;1433;49.976;8.342;2023-04-21T14:16:45;6.60;;;6.00;;
2850;SDS011;1433;49.976;8.342;2023-04-21T14:19:13;6.43;;;5.67;;
2850;SDS011;1433;49.976;8.342;2023-04-21T14:21:43;8.30;;;6.20;;
2850;SDS011;1433;49.976;8.342;2023-04-21T14:24:09;7.17;;;6.50;;
2850;SDS011;1433;49.976;8.342;2023-04-21T14:26:35;6.43;;;5.87;;
2850;SDS011;1433;49.976;8.342;2023-04-21T14:29:02;7.10;;;6.40;;
2850;SDS011;1433;49.976;8.342;2023-04-21T14:31:28;6.00;;;5.40;;
2850;SDS011;1433;49.976;8.342;2023-04-21T14:33:54;6.13;;;5.53;;
2850;SDS011;1433;49.976;8.342;2023-04-21T14:36:20;6.37;;;5.77;;
2850;SDS011;1433;49.976;8.342;2023-04-21T14:38:46;6.80;;;5.90;;
2850;SDS011;1433;49.976;8.342;2023-04-21T14:41:15;6.53;;;5.93;;
2850;SDS011;1433;49.976;8.342;2023-04-21T14:43:40;6.23;;;5.63;;
2850;SDS011;1433;49.976;8.342;2023-04-21T14:46:07;7.83;;;5.87;;
2850;SDS011;1433;49.976;8.342;2023-04-21T14:48:33;5.90;;;5.40;;
2850;SDS011;1433;49.976;8.342;2023-04-21T14:50:59;6.50;;;6.00;;
2850;SDS011;1433;49.976;8.342;2023-04-21T14:53:26;6.73;;;5.30;;
2850;SDS011;1433;49.976;8.342;2023-04-21T14:55:52;5.87;;;5.27;;
2850;SDS011;1433;49.976;8.342;2023-04-21T14:58:18;4.90;;;4.60;;
2850;SDS011;1433;49.976;8.342;2023-04-21T15:00:44;6.03;;;5.53;;
2850;SDS011;1433;49.976;8.342;2023-04-21T15:03:10;5.10;;;4.60;;
2850;SDS011;1433;49.976;8.342;2023-04-21T15:05:36;5.20;;;4.70;;
2850;SDS011;1433;49.976;8.342;2023-04-21T15:08:03;5.50;;;5.00;;
2850;SDS011;1433;49.976;8.342;2023-04-21T15:10:30;6.63;;;5.90;;
2850;SDS011;1433;49.976;8.342;2023-04-21T15:12:57;4.83;;;4.13;;
2850;SDS011;1433;49.976;8.342;2023-04-21T15:15:23;5.67;;;4.93;;
2850;SDS011;1433;49.976;8.342;2023-04-21T15:17:49;5.80;;;5.30;;
2850;SDS011;1433;49.976;8.342;2023-04-21T15:20:15;6.20;;;5.60;;
2850;SDS011;1433;49.976;8.342;2023-04-21T15:22:42;5.63;;;5.07;;